sensor_id;sensor_type;location;lat;lon;timestamp;pressure;altitude;pressure_sealevel;temperature;humidity
60918;BME280;46792;38.854;-9.384;2023-04-02T00:01:38;100393.22;;;13.67;100.00
60918;BME280;46792;38.854;-9.384;2023-04-02T00:05:44;100392.72;;;13.71;100.00
60918;BME280;46792;38.854;-9.384;2023-04-02T00:07:52;100391.59;;;13.66;100.00
60918;BME280;46792;38.854;-9.384;2023-04-02T00:09:57;100383.69;;;13.65;100.00
60918;BME280;46792;38.854;-9.384;2023-04-02T00:11:58;100379.63;;;13.62;100.00
60918;BME280;46792;38.854;-9.384;2023-04-02T00:14:33;100386.13;;;13.61;100.00
60918;BME280;46792;38.854;-9.384;2023-04-02T00:16:54;100385.03;;;13.57;100.00
60918;BME280;46792;38.854;-9.384;2023-04-02T00:19:27;100386.09;;;13.56;100.00
60918;BME280;46792;38.854;-9.384;2023-04-02T00:21:50;100390.47;;;13.62;100.00
60918;BME280;46792;38.854;-9.384;2023-04-02T00:23:55;100396.44;;;13.59;100.00
60918;BME280;46792;38.854;-9.384;2023-04-02T00:25:58;100389.38;;;13.58;100.00
60918;BME280;46792;38.854;-9.384;2023-04-02T00:27:58;100387.22;;;13.60;100.00
60918;BME280;46792;38.854;-9.384;2023-04-02T00:30:00;100383.66;;;13.54;100.00
60918;BME280;46792;38.854;-9.384;2023-04-02T00:32:00;100384.16;;;13.46;100.00
60918;BME280;46792;38.854;-9.384;2023-04-02T00:34:03;100375.78;;;13.53;100.00
60918;BME280;46792;38.854;-9.384;2023-04-02T00:36:05;100379.88;;;13.56;100.00
60918;BME280;46792;38.854;-9.384;2023-04-02T00:38:27;100375.25;;;13.56;100.00
60918;BME280;46792;38.854;-9.384;2023-04-02T00:40:30;100365.22;;;13.57;100.00
60918;BME280;46792;38.854;-9.384;2023-04-02T00:42:31;100371.75;;;13.61;100.00
60918;BME280;46792;38.854;-9.384;2023-04-02T00:44:37;100368.19;;;13.50;100.00
60918;BME280;46792;38.854;-9.384;2023-04-02T00:46:43;100364.34;;;13.46;100.00
60918;BME280;46792;38.854;-9.384;2023-04-02T00:48:56;100359.13;;;13.39;100.00
60918;BME280;46792;38.854;-9.384;2023-04-02T00:51:18;100361.63;;;13.46;100.00
60918;BME280;46792;38.854;-9.384;2023-04-02T00:53:30;100353.16;;;13.37;100.00
60918;BME280;46792;38.854;-9.384;2023-04-02T00:55:50;100346.72;;;13.43;100.00
60918;BME280;46792;38.854;-9.384;2023-04-02T00:57:52;100355.66;;;13.44;100.00
60918;BME280;46792;38.854;-9.384;2023-04-02T01:00:36;100354.56;;;13.45;100.00
60918;BME280;46792;38.854;-9.384;2023-04-02T01:02:36;100358.13;;;13.50;100.00
60918;BME280;46792;38.854;-9.384;2023-04-02T01:04:40;100356.13;;;13.35;100.00
60918;BME280;46792;38.854;-9.384;2023-04-02T01:06:41;100360.47;;;13.36;100.00
60918;BME280;46792;38.854;-9.384;2023-04-02T01:21:08;100365.38;;;13.39;100.00
60918;BME280;46792;38.854;-9.384;2023-04-02T01:25:54;100357.69;;;13.21;100.00
60918;BME280;46792;38.854;-9.384;2023-04-02T01:28:12;100353.56;;;13.18;100.00
60918;BME280;46792;38.854;-9.384;2023-04-02T01:30:37;100351.09;;;13.12;100.00
60918;BME280;46792;38.854;-9.384;2023-04-02T01:32:39;100353.28;;;13.15;100.00
60918;BME280;46792;38.854;-9.384;2023-04-02T01:34:44;100348.38;;;13.06;100.00
60918;BME280;46792;38.854;-9.384;2023-04-02T01:42:24;100343.03;;;13.22;100.00
60918;BME280;46792;38.854;-9.384;2023-04-02T01:44:41;100336.19;;;13.09;100.00
60918;BME280;46792;38.854;-9.384;2023-04-02T01:46:42;100340.25;;;13.06;100.00
60918;BME280;46792;38.854;-9.384;2023-04-02T01:48:44;100339.13;;;13.02;100.00
60918;BME280;46792;38.854;-9.384;2023-04-02T01:50:47;100338.06;;;13.08;100.00
60918;BME280;46792;38.854;-9.384;2023-04-02T01:52:51;100332.53;;;12.93;100.00
60918;BME280;46792;38.854;-9.384;2023-04-02T01:54:55;100335.25;;;12.93;100.00
60918;BME280;46792;38.854;-9.384;2023-04-02T01:56:56;100329.59;;;13.00;100.00
60918;BME280;46792;38.854;-9.384;2023-04-02T01:58:57;100333.97;;;13.06;100.00
60918;BME280;46792;38.854;-9.384;2023-04-02T02:01:21;100338.28;;;12.97;100.00
60918;BME280;46792;38.854;-9.384;2023-04-02T02:03:25;100337.72;;;12.95;100.00
60918;BME280;46792;38.854;-9.384;2023-04-02T02:05:26;100326.66;;;13.01;100.00
60918;BME280;46792;38.854;-9.384;2023-04-02T02:07:29;100340.19;;;13.01;100.00
60918;BME280;46792;38.854;-9.384;2023-04-02T02:09:43;100335.34;;;13.08;100.00
60918;BME280;46792;38.854;-9.384;2023-04-02T02:11:44;100330.44;;;13.00;100.00
60918;BME280;46792;38.854;-9.384;2023-04-02T02:13:51;100329.69;;;13.10;100.00
60918;BME280;46792;38.854;-9.384;2023-04-02T02:15:57;100332.88;;;13.02;100.00
60918;BME280;46792;38.854;-9.384;2023-04-02T02:18:01;100329.69;;;13.10;100.00
60918;BME280;46792;38.854;-9.384;2023-04-02T02:20:03;100333.53;;;13.19;100.00
60918;BME280;46792;38.854;-9.384;2023-04-02T02:22:28;100329.50;;;13.22;100.00
60918;BME280;46792;38.854;-9.384;2023-04-02T02:24:34;100325.66;;;13.18;100.00
60918;BME280;46792;38.854;-9.384;2023-04-02T02:26:36;100321.03;;;13.18;100.00
60918;BME280;46792;38.854;-9.384;2023-04-02T02:28:41;100325.94;;;13.21;100.00
60918;BME280;46792;38.854;-9.384;2023-04-02T02:30:46;100314.00;;;13.17;100.00
60918;BME280;46792;38.854;-9.384;2023-04-02T02:32:53;100309.41;;;13.18;100.00
60918;BME280;46792;38.854;-9.384;2023-04-02T02:35:24;100309.63;;;13.16;100.00
60918;BME280;46792;38.854;-9.384;2023-04-02T02:37:29;100308.81;;;13.11;100.00
60918;BME280;46792;38.854;-9.384;2023-04-02T02:39:44;100305.59;;;13.19;100.00
60918;BME280;46792;38.854;-9.384;2023-04-02T02:44:27;100306.31;;;13.04;100.00
60918;BME280;46792;38.854;-9.384;2023-04-02T02:46:30;100308.22;;;13.03;100.00
60918;BME280;46792;38.854;-9.384;2023-04-02T02:48:36;100307.38;;;12.98;100.00
60918;BME280;46792;38.854;-9.384;2023-04-02T02:50:56;100306.06;;;13.05;100.00
60918;BME280;46792;38.854;-9.384;2023-04-02T02:53:22;100303.84;;;12.97;100.00
60918;BME280;46792;38.854;-9.384;2023-04-02T02:55:30;100306.50;;;12.87;100.00
60918;BME280;46792;38.854;-9.384;2023-04-02T02:58:04;100299.69;;;12.84;100.00
60918;BME280;46792;38.854;-9.384;2023-04-02T03:00:14;100298.28;;;12.76;100.00
60918;BME280;46792;38.854;-9.384;2023-04-02T03:02:17;100290.41;;;12.75;100.00
60918;BME280;46792;38.854;-9.384;2023-04-02T03:04:22;100283.63;;;12.72;100.00
60918;BME280;46792;38.854;-9.384;2023-04-02T03:06:26;100289.00;;;12.67;100.00
60918;BME280;46792;38.854;-9.384;2023-04-02T03:08:36;100285.50;;;12.67;100.00
60918;BME280;46792;38.854;-9.384;2023-04-02T03:16:09;100286.13;;;12.46;100.00
60918;BME280;46792;38.854;-9.384;2023-04-02T03:20:44;100295.31;;;12.40;100.00
60918;BME280;46792;38.854;-9.384;2023-04-02T03:22:57;100305.81;;;12.37;100.00
60918;BME280;46792;38.854;-9.384;2023-04-02T03:25:21;100307.16;;;12.34;100.00
60918;BME280;46792;38.854;-9.384;2023-04-02T03:27:39;100310.41;;;12.36;100.00
60918;BME280;46792;38.854;-9.384;2023-04-02T03:32:31;100306.59;;;12.32;100.00
60918;BME280;46792;38.854;-9.384;2023-04-02T03:34:43;100303.31;;;12.30;100.00
60918;BME280;46792;38.854;-9.384;2023-04-02T03:37:01;100303.31;;;12.30;100.00
60918;BME280;46792;38.854;-9.384;2023-04-02T03:41:46;100308.72;;;12.30;100.00
60918;BME280;46792;38.854;-9.384;2023-04-02T03:43:57;100306.22;;;12.23;100.00
60918;BME280;46792;38.854;-9.384;2023-04-02T03:46:40;100305.16;;;12.24;100.00
60918;BME280;46792;38.854;-9.384;2023-04-02T03:48:45;100298.38;;;12.22;100.00
60918;BME280;46792;38.854;-9.384;2023-04-02T03:50:55;100300.25;;;12.21;100.00
60918;BME280;46792;38.854;-9.384;2023-04-02T03:55:58;100293.75;;;12.22;100.00
60918;BME280;46792;38.854;-9.384;2023-04-02T03:58:15;100292.19;;;12.26;100.00
60918;BME280;46792;38.854;-9.384;2023-04-02T04:00:36;100283.16;;;12.15;100.00
60918;BME280;46792;38.854;-9.384;2023-04-02T04:02:56;100291.28;;;12.15;100.00
60918;BME280;46792;38.854;-9.384;2023-04-02T04:05:01;100284.69;;;12.06;100.00
60918;BME280;46792;38.854;-9.384;2023-04-02T04:07:30;100283.56;;;12.02;100.00
60918;BME280;46792;38.854;-9.384;2023-04-02T04:09:50;100283.56;;;12.02;100.00
60918;BME280;46792;38.854;-9.384;2023-04-02T04:11:59;100281.84;;;11.96;100.00
60918;BME280;46792;38.854;-9.384;2023-04-02T04:21:39;100281.16;;;11.83;100.00
60918;BME280;46792;38.854;-9.384;2023-04-02T04:23:53;100276.25;;;11.80;100.00
60918;BME280;46792;38.854;-9.384;2023-04-02T04:28:29;100273.03;;;11.78;100.00
60918;BME280;46792;38.854;-9.384;2023-04-02T04:32:57;100272.19;;;11.78;100.00
60918;BME280;46792;38.854;-9.384;2023-04-02T04:35:32;100276.16;;;11.70;100.00
60918;BME280;46792;38.854;-9.384;2023-04-02T04:37:40;100272.66;;;11.69;100.00
60918;BME280;46792;38.854;-9.384;2023-04-02T04:39:48;100278.88;;;11.70;100.00
60918;BME280;46792;38.854;-9.384;2023-04-02T04:41:52;100280.19;;;11.67;100.00
60918;BME280;46792;38.854;-9.384;2023-04-02T04:44:03;100279.31;;;11.62;100.00
60918;BME280;46792;38.854;-9.384;2023-04-02T04:46:13;100288.31;;;11.67;100.00
60918;BME280;46792;38.854;-9.384;2023-04-02T04:50:36;100289.88;;;11.63;100.00
60918;BME280;46792;38.854;-9.384;2023-04-02T04:52:42;100298.28;;;11.67;100.00
60918;BME280;46792;38.854;-9.384;2023-04-02T04:55:15;100300.44;;;11.65;100.00
60918;BME280;46792;38.854;-9.384;2023-04-02T04:57:31;100290.16;;;11.62;100.00
60918;BME280;46792;38.854;-9.384;2023-04-02T04:59:40;100295.84;;;11.65;100.00
60918;BME280;46792;38.854;-9.384;2023-04-02T05:01:55;100293.66;;;11.62;100.00
60918;BME280;46792;38.854;-9.384;2023-04-02T05:04:08;100286.97;;;11.70;100.00
60918;BME280;46792;38.854;-9.384;2023-04-02T05:06:25;100296.66;;;11.66;100.00
60918;BME280;46792;38.854;-9.384;2023-04-02T05:08:34;100288.06;;;11.69;100.00
60918;BME280;46792;38.854;-9.384;2023-04-02T05:10:58;100288.56;;;11.66;100.00
60918;BME280;46792;38.854;-9.384;2023-04-02T05:13:15;100284.22;;;11.65;100.00
60918;BME280;46792;38.854;-9.384;2023-04-02T05:15:39;100284.22;;;11.65;100.00
60918;BME280;46792;38.854;-9.384;2023-04-02T05:20:45;100287.56;;;11.72;100.00
60918;BME280;46792;38.854;-9.384;2023-04-02T05:29:35;100282.13;;;11.72;100.00
60918;BME280;46792;38.854;-9.384;2023-04-02T05:31:42;100283.28;;;11.76;100.00
60918;BME280;46792;38.854;-9.384;2023-04-02T05:33:46;100289.78;;;11.80;100.00
60918;BME280;46792;38.854;-9.384;2023-04-02T05:35:50;100292.38;;;11.70;100.00
60918;BME280;46792;38.854;-9.384;2023-04-02T05:37:55;100300.00;;;11.73;100.00
60918;BME280;46792;38.854;-9.384;2023-04-02T05:39:59;100300.50;;;11.70;100.00
60918;BME280;46792;38.854;-9.384;2023-04-02T05:42:15;100298.63;;;11.70;100.00
60918;BME280;46792;38.854;-9.384;2023-04-02T05:44:33;100306.38;;;11.62;100.00
60918;BME280;46792;38.854;-9.384;2023-04-02T05:47:03;100307.63;;;11.54;100.00
60918;BME280;46792;38.854;-9.384;2023-04-02T05:49:11;100304.09;;;11.53;100.00
60918;BME280;46792;38.854;-9.384;2023-04-02T05:51:41;100310.25;;;11.49;100.00
60918;BME280;46792;38.854;-9.384;2023-04-02T05:53:52;100312.97;;;11.49;100.00
60918;BME280;46792;38.854;-9.384;2023-04-02T05:58:38;100315.59;;;11.44;100.00
60918;BME280;46792;38.854;-9.384;2023-04-02T06:01:40;100317.22;;;11.45;100.00
60918;BME280;46792;38.854;-9.384;2023-04-02T06:04:16;100322.31;;;11.41;100.00
60918;BME280;46792;38.854;-9.384;2023-04-02T06:06:26;100327.72;;;11.41;100.00
60918;BME280;46792;38.854;-9.384;2023-04-02T06:08:39;100323.78;;;11.49;100.00
60918;BME280;46792;38.854;-9.384;2023-04-02T06:10:50;100328.31;;;11.43;100.00
60918;BME280;46792;38.854;-9.384;2023-04-02T06:13:06;100330.75;;;11.45;100.00
60918;BME280;46792;38.854;-9.384;2023-04-02T06:15:26;100325.59;;;11.43;100.00
60918;BME280;46792;38.854;-9.384;2023-04-02T06:17:57;100333.25;;;11.51;100.00
60918;BME280;46792;38.854;-9.384;2023-04-02T06:20:19;100327.66;;;11.58;100.00
60918;BME280;46792;38.854;-9.384;2023-04-02T06:24:30;100317.00;;;11.46;100.00
60918;BME280;46792;38.854;-9.384;2023-04-02T06:28:51;100320.22;;;11.26;100.00
60918;BME280;46792;38.854;-9.384;2023-04-02T06:31:00;100326.38;;;11.21;100.00
60918;BME280;46792;38.854;-9.384;2023-04-02T06:33:11;100323.09;;;11.19;100.00
60918;BME280;46792;38.854;-9.384;2023-04-02T06:35:15;100319.78;;;11.12;100.00
60918;BME280;46792;38.854;-9.384;2023-04-02T06:37:27;100325.31;;;11.22;100.00
60918;BME280;46792;38.854;-9.384;2023-04-02T06:39:49;100325.81;;;11.19;100.00
60918;BME280;46792;38.854;-9.384;2023-04-02T06:42:00;100330.41;;;11.19;100.00
60918;BME280;46792;38.854;-9.384;2023-04-02T06:44:24;100327.88;;;11.12;100.00
60918;BME280;46792;38.854;-9.384;2023-04-02T06:46:39;100341.31;;;11.07;100.00
60918;BME280;46792;38.854;-9.384;2023-04-02T06:48:44;100340.72;;;11.05;100.00
60918;BME280;46792;38.854;-9.384;2023-04-02T06:51:08;100331.81;;;11.04;100.00
60918;BME280;46792;38.854;-9.384;2023-04-02T06:53:26;100335.09;;;11.06;100.00
60918;BME280;46792;38.854;-9.384;2023-04-02T06:57:41;100342.53;;;10.99;100.00
60918;BME280;46792;38.854;-9.384;2023-04-02T07:00:00;100332.63;;;11.05;100.00
60918;BME280;46792;38.854;-9.384;2023-04-02T07:02:33;100339.41;;;11.07;100.00
60918;BME280;46792;38.854;-9.384;2023-04-02T07:05:02;100342.38;;;11.06;100.00
60918;BME280;46792;38.854;-9.384;2023-04-02T07:07:04;100342.38;;;11.06;100.00
60918;BME280;46792;38.854;-9.384;2023-04-02T07:09:11;100332.41;;;11.06;100.00
60918;BME280;46792;38.854;-9.384;2023-04-02T07:11:19;100339.66;;;11.06;100.00
60918;BME280;46792;38.854;-9.384;2023-04-02T07:13:23;100344.81;;;11.07;100.00
60918;BME280;46792;38.854;-9.384;2023-04-02T07:15:45;100346.22;;;11.10;100.00
60918;BME280;46792;38.854;-9.384;2023-04-02T07:17:46;100347.28;;;11.09;100.00
60918;BME280;46792;38.854;-9.384;2023-04-02T07:19:47;100340.25;;;11.08;100.00
60918;BME280;46792;38.854;-9.384;2023-04-02T07:21:53;100342.94;;;11.08;100.00
60918;BME280;46792;38.854;-9.384;2023-04-02T07:23:56;100349.25;;;11.14;100.00
60918;BME280;46792;38.854;-9.384;2023-04-02T07:25:56;100352.34;;;11.22;100.00
60918;BME280;46792;38.854;-9.384;2023-04-02T07:27:57;100343.66;;;11.20;100.00
60918;BME280;46792;38.854;-9.384;2023-04-02T07:29:58;100339.97;;;11.26;100.00
60918;BME280;46792;38.854;-9.384;2023-04-02T07:31:59;100341.66;;;11.33;100.00
60918;BME280;46792;38.854;-9.384;2023-04-02T07:34:00;100344.72;;;11.36;100.00
60918;BME280;46792;38.854;-9.384;2023-04-02T07:36:00;100352.63;;;11.43;100.00
60918;BME280;46792;38.854;-9.384;2023-04-02T07:38:01;100349.44;;;11.46;100.00
60918;BME280;46792;38.854;-9.384;2023-04-02T07:40:20;100346.78;;;11.51;100.00
60918;BME280;46792;38.854;-9.384;2023-04-02T07:42:23;100346.88;;;11.56;100.00
60918;BME280;46792;38.854;-9.384;2023-04-02T07:47:01;100360.56;;;11.72;100.00
60918;BME280;46792;38.854;-9.384;2023-04-02T07:49:02;100367.13;;;11.76;100.00
60918;BME280;46792;38.854;-9.384;2023-04-02T07:51:03;100361.75;;;11.81;100.00
60918;BME280;46792;38.854;-9.384;2023-04-02T07:53:04;100367.81;;;11.89;100.00
60918;BME280;46792;38.854;-9.384;2023-04-02T07:55:24;100365.72;;;11.96;100.00
60918;BME280;46792;38.854;-9.384;2023-04-02T07:57:52;100352.59;;;12.05;100.00
60918;BME280;46792;38.854;-9.384;2023-04-02T08:00:12;100362.59;;;12.04;100.00
60918;BME280;46792;38.854;-9.384;2023-04-02T08:02:19;100361.25;;;12.01;100.00
60918;BME280;46792;38.854;-9.384;2023-04-02T08:04:21;100356.38;;;12.04;100.00
60918;BME280;46792;38.854;-9.384;2023-04-02T08:06:40;100356.22;;;12.15;100.00
60918;BME280;46792;38.854;-9.384;2023-04-02T08:08:42;100352.75;;;12.20;100.00
60918;BME280;46792;38.854;-9.384;2023-04-02T08:13:01;100352.31;;;12.28;100.00
60918;BME280;46792;38.854;-9.384;2023-04-02T08:15:03;100353.75;;;12.36;100.00
60918;BME280;46792;38.854;-9.384;2023-04-02T08:17:06;100352.72;;;12.42;100.00
60918;BME280;46792;38.854;-9.384;2023-04-02T08:19:06;100351.13;;;12.46;100.00
60918;BME280;46792;38.854;-9.384;2023-04-02T08:21:08;100348.47;;;12.52;100.00
60918;BME280;46792;38.854;-9.384;2023-04-02T08:23:28;100350.44;;;12.61;100.00
60918;BME280;46792;38.854;-9.384;2023-04-02T08:25:47;100361.38;;;12.72;100.00
60918;BME280;46792;38.854;-9.384;2023-04-02T08:28:06;100348.44;;;12.79;100.00
60918;BME280;46792;38.854;-9.384;2023-04-02T08:30:11;100356.84;;;12.83;100.00
60918;BME280;46792;38.854;-9.384;2023-04-02T08:34:32;100356.69;;;13.00;100.00
60918;BME280;46792;38.854;-9.384;2023-04-02T08:36:35;100358.44;;;13.11;100.00
60918;BME280;46792;38.854;-9.384;2023-04-02T08:38:36;100358.97;;;13.13;100.00
60918;BME280;46792;38.854;-9.384;2023-04-02T08:40:43;100359.59;;;13.26;100.00
60918;BME280;46792;38.854;-9.384;2023-04-02T08:50:51;100362.91;;;13.38;94.58
60918;BME280;46792;38.854;-9.384;2023-04-02T08:52:52;100361.56;;;13.35;93.49
60918;BME280;46792;38.854;-9.384;2023-04-02T08:54:53;100364.56;;;13.39;93.08
60918;BME280;46792;38.854;-9.384;2023-04-02T08:57:00;100361.16;;;13.59;92.91
60918;BME280;46792;38.854;-9.384;2023-04-02T08:59:38;100361.19;;;13.64;93.65
60918;BME280;46792;38.854;-9.384;2023-04-02T09:01:48;100357.69;;;13.69;92.49
60918;BME280;46792;38.854;-9.384;2023-04-02T09:03:56;100359.06;;;13.77;93.30
60918;BME280;46792;38.854;-9.384;2023-04-02T09:06:18;100362.94;;;13.96;92.40
60918;BME280;46792;38.854;-9.384;2023-04-02T09:08:21;100371.66;;;14.09;90.27
60918;BME280;46792;38.854;-9.384;2023-04-02T09:10:33;100372.50;;;14.14;88.99
60918;BME280;46792;38.854;-9.384;2023-04-02T09:15:57;100368.19;;;14.24;85.46
60918;BME280;46792;38.854;-9.384;2023-04-02T09:18:17;100376.38;;;14.39;84.43
60918;BME280;46792;38.854;-9.384;2023-04-02T09:20:36;100371.22;;;14.48;82.32
60918;BME280;46792;38.854;-9.384;2023-04-02T09:22:37;100369.06;;;14.60;81.89
60918;BME280;46792;38.854;-9.384;2023-04-02T09:24:38;100371.50;;;14.62;80.98
60918;BME280;46792;38.854;-9.384;2023-04-02T09:26:39;100377.25;;;14.71;81.22
60918;BME280;46792;38.854;-9.384;2023-04-02T09:31:42;100366.91;;;14.88;79.74
60918;BME280;46792;38.854;-9.384;2023-04-02T09:34:32;100367.47;;;14.96;74.97
60918;BME280;46792;38.854;-9.384;2023-04-02T09:36:38;100364.22;;;14.99;75.82
60918;BME280;46792;38.854;-9.384;2023-04-02T09:41:18;100361.47;;;15.04;75.06
60918;BME280;46792;38.854;-9.384;2023-04-02T09:43:21;100371.53;;;15.14;75.33
60918;BME280;46792;38.854;-9.384;2023-04-02T09:45:23;100370.94;;;15.27;75.46
60918;BME280;46792;38.854;-9.384;2023-04-02T09:47:25;100372.28;;;15.45;76.17
60918;BME280;46792;38.854;-9.384;2023-04-02T09:49:32;100366.25;;;15.64;74.09
60918;BME280;46792;38.854;-9.384;2023-04-02T09:51:33;100367.84;;;15.70;71.37
60918;BME280;46792;38.854;-9.384;2023-04-02T09:53:41;100363.41;;;15.85;67.85
60918;BME280;46792;38.854;-9.384;2023-04-02T09:55:42;100360.72;;;15.95;67.30
60918;BME280;46792;38.854;-9.384;2023-04-02T09:57:45;100365.25;;;16.10;67.22
60918;BME280;46792;38.854;-9.384;2023-04-02T09:59:45;100359.22;;;16.18;65.68
60918;BME280;46792;38.854;-9.384;2023-04-02T10:02:25;100363.22;;;16.31;62.75
60918;BME280;46792;38.854;-9.384;2023-04-02T10:04:48;100365.91;;;16.36;61.38
60918;BME280;46792;38.854;-9.384;2023-04-02T10:06:49;100372.09;;;16.47;62.22
60918;BME280;46792;38.854;-9.384;2023-04-02T10:08:53;100363.59;;;16.59;62.82
60918;BME280;46792;38.854;-9.384;2023-04-02T10:10:59;100360.47;;;16.71;63.00
60918;BME280;46792;38.854;-9.384;2023-04-02T10:15:35;100374.88;;;16.77;61.08
60918;BME280;46792;38.854;-9.384;2023-04-02T10:17:37;100377.19;;;16.94;60.10
60918;BME280;46792;38.854;-9.384;2023-04-02T10:19:46;100365.34;;;17.09;59.65
60918;BME280;46792;38.854;-9.384;2023-04-02T10:21:48;100372.94;;;17.17;57.35
60918;BME280;46792;38.854;-9.384;2023-04-02T10:23:49;100369.69;;;17.39;57.12
60918;BME280;46792;38.854;-9.384;2023-04-02T10:28:59;100371.84;;;17.67;56.46
60918;BME280;46792;38.854;-9.384;2023-04-02T10:31:21;100375.50;;;17.81;54.40
60918;BME280;46792;38.854;-9.384;2023-04-02T10:33:29;100371.81;;;17.72;54.62
60918;BME280;46792;38.854;-9.384;2023-04-02T10:38:42;100374.41;;;17.82;55.83
60918;BME280;46792;38.854;-9.384;2023-04-02T10:41:00;100371.44;;;18.03;54.80
60918;BME280;46792;38.854;-9.384;2023-04-02T10:45:39;100381.19;;;18.47;55.22
60918;BME280;46792;38.854;-9.384;2023-04-02T10:52:37;100393.69;;;18.87;51.05
60918;BME280;46792;38.854;-9.384;2023-04-02T10:54:49;100391.59;;;18.64;51.65
60918;BME280;46792;38.854;-9.384;2023-04-02T11:00:12;100386.94;;;18.65;49.95
60918;BME280;46792;38.854;-9.384;2023-04-02T11:02:31;100394.25;;;18.69;51.15
60918;BME280;46792;38.854;-9.384;2023-04-02T11:04:52;100385.78;;;18.33;50.00
60918;BME280;46792;38.854;-9.384;2023-04-02T11:07:02;100390.88;;;18.39;51.34
60918;BME280;46792;38.854;-9.384;2023-04-02T11:09:06;100394.56;;;18.68;49.85
60918;BME280;46792;38.854;-9.384;2023-04-02T11:13:42;100390.53;;;18.79;47.59
60918;BME280;46792;38.854;-9.384;2023-04-02T11:15:44;100388.59;;;18.80;46.32
60918;BME280;46792;38.854;-9.384;2023-04-02T11:17:46;100391.28;;;18.85;46.86
60918;BME280;46792;38.854;-9.384;2023-04-02T11:19:47;100396.00;;;18.98;47.45
60918;BME280;46792;38.854;-9.384;2023-04-02T11:26:39;100392.63;;;19.35;43.92
60918;BME280;46792;38.854;-9.384;2023-04-02T11:28:41;100389.59;;;19.50;43.60
60918;BME280;46792;38.854;-9.384;2023-04-02T11:31:00;100383.31;;;19.78;50.46
60918;BME280;46792;38.854;-9.384;2023-04-02T11:33:40;100382.22;;;19.79;59.70
60918;BME280;46792;38.854;-9.384;2023-04-02T11:36:00;100376.63;;;19.56;62.02
60918;BME280;46792;38.854;-9.384;2023-04-02T11:40:44;100384.66;;;19.52;65.62
60918;BME280;46792;38.854;-9.384;2023-04-02T11:42:47;100383.03;;;19.51;66.93
60918;BME280;46792;38.854;-9.384;2023-04-02T11:44:48;100378.53;;;19.41;66.08
60918;BME280;46792;38.854;-9.384;2023-04-02T11:46:49;100373.78;;;19.33;64.88
60918;BME280;46792;38.854;-9.384;2023-04-02T11:49:35;100377.63;;;19.32;64.08
60918;BME280;46792;38.854;-9.384;2023-04-02T11:53:36;100387.13;;;19.21;67.98
60918;BME280;46792;38.854;-9.384;2023-04-02T11:57:58;100390.19;;;18.67;69.60
60918;BME280;46792;38.854;-9.384;2023-04-02T12:05:02;100391.34;;;18.80;70.35
60918;BME280;46792;38.854;-9.384;2023-04-02T12:09:43;100390.50;;;18.46;71.71
60918;BME280;46792;38.854;-9.384;2023-04-02T12:11:45;100376.69;;;18.37;72.97
60918;BME280;46792;38.854;-9.384;2023-04-02T12:13:59;100387.63;;;18.37;74.29
60918;BME280;46792;38.854;-9.384;2023-04-02T12:16:01;100374.38;;;18.64;75.52
60918;BME280;46792;38.854;-9.384;2023-04-02T12:18:24;100377.00;;;18.36;71.60
60918;BME280;46792;38.854;-9.384;2023-04-02T12:20:29;100368.50;;;18.18;74.09
60918;BME280;46792;38.854;-9.384;2023-04-02T12:22:45;100376.28;;;18.06;74.73
60918;BME280;46792;38.854;-9.384;2023-04-02T12:24:47;100367.34;;;18.00;75.57
60918;BME280;46792;38.854;-9.384;2023-04-02T12:27:26;100357.78;;;18.03;77.35
60918;BME280;46792;38.854;-9.384;2023-04-02T12:29:29;100360.81;;;18.20;75.34
60918;BME280;46792;38.854;-9.384;2023-04-02T12:31:30;100365.25;;;18.35;76.43
60918;BME280;46792;38.854;-9.384;2023-04-02T12:33:35;100359.69;;;18.41;73.26
60918;BME280;46792;38.854;-9.384;2023-04-02T12:35:39;100348.84;;;18.16;72.88
60918;BME280;46792;38.854;-9.384;2023-04-02T12:37:40;100362.66;;;18.25;71.74
60918;BME280;46792;38.854;-9.384;2023-04-02T12:40:03;100363.09;;;18.13;73.58
60918;BME280;46792;38.854;-9.384;2023-04-02T12:42:33;100352.16;;;18.32;71.95
60918;BME280;46792;38.854;-9.384;2023-04-02T12:44:34;100339.22;;;18.38;70.63
60918;BME280;46792;38.854;-9.384;2023-04-02T12:46:35;100342.09;;;18.47;71.24
60918;BME280;46792;38.854;-9.384;2023-04-02T12:48:37;100340.19;;;18.80;69.73
60918;BME280;46792;38.854;-9.384;2023-04-02T12:50:38;100333.13;;;18.93;68.01
60918;BME280;46792;38.854;-9.384;2023-04-02T12:52:45;100340.72;;;19.15;66.00
60918;BME280;46792;38.854;-9.384;2023-04-02T12:54:50;100343.06;;;19.22;65.70
60918;BME280;46792;38.854;-9.384;2023-04-02T12:57:21;100336.22;;;19.20;67.50
60918;BME280;46792;38.854;-9.384;2023-04-02T13:02:48;100347.97;;;19.06;65.94
60918;BME280;46792;38.854;-9.384;2023-04-02T13:05:07;100336.44;;;19.37;66.33
60918;BME280;46792;38.854;-9.384;2023-04-02T13:08:03;100334.22;;;19.39;65.71
60918;BME280;46792;38.854;-9.384;2023-04-02T13:10:21;100324.59;;;19.56;64.65
60918;BME280;46792;38.854;-9.384;2023-04-02T13:12:37;100322.38;;;19.58;64.15
60918;BME280;46792;38.854;-9.384;2023-04-02T13:14:38;100323.75;;;19.69;65.02
60918;BME280;46792;38.854;-9.384;2023-04-02T13:16:39;100322.03;;;19.73;64.72
60918;BME280;46792;38.854;-9.384;2023-04-02T13:19:29;100317.44;;;19.83;62.89
60918;BME280;46792;38.854;-9.384;2023-04-02T13:21:31;100320.72;;;19.71;62.23
60918;BME280;46792;38.854;-9.384;2023-04-02T13:23:35;100313.03;;;19.73;63.38
60918;BME280;46792;38.854;-9.384;2023-04-02T13:28:23;100311.91;;;19.88;61.98
60918;BME280;46792;38.854;-9.384;2023-04-02T13:30:29;100305.69;;;19.68;62.75
60918;BME280;46792;38.854;-9.384;2023-04-02T13:32:29;100306.63;;;19.78;63.36
60918;BME280;46792;38.854;-9.384;2023-04-02T13:34:30;100309.88;;;19.66;61.71